sensor_id;sensor_type;location;lat;lon;timestamp;P1;durP1;ratioP1;P2;durP2;ratioP2
71759;SDS011;59919;48.112;16.280;2023-07-22T00:00:34;1.67;;;1.08;;
71759;SDS011;59919;48.112;16.280;2023-07-22T00:03:07;1.38;;;1.10;;
71759;SDS011;59919;48.112;16.280;2023-07-22T00:05:41;1.20;;;1.10;;
71759;SDS011;59919;48.112;16.280;2023-07-22T00:08:14;1.17;;;0.90;;
71759;SDS011;59919;48.112;16.280;2023-07-22T00:10:54;1.27;;;1.13;;
71759;SDS011;59919;48.112;16.280;2023-07-22T00:13:27;1.20;;;1.10;;
71759;SDS011;59919;48.112;16.280;2023-07-22T00:16:06;1.73;;;1.20;;
71759;SDS011;59919;48.112;16.280;2023-07-22T00:18:39;1.20;;;1.02;;
71759;SDS011;59919;48.112;16.280;2023-07-22T00:21:14;1.10;;;1.00;;
71759;SDS011;59919;48.112;16.280;2023-07-22T00:23:47;1.15;;;1.05;;
71759;SDS011;59919;48.112;16.280;2023-07-22T00:26:20;2.17;;;1.20;;
71759;SDS011;59919;48.112;16.280;2023-07-22T00:28:54;1.50;;;1.30;;
71759;SDS011;59919;48.112;16.280;2023-07-22T00:31:26;2.25;;;1.50;;
71759;SDS011;59919;48.112;16.280;2023-07-22T00:33:58;1.33;;;1.10;;
71759;SDS011;59919;48.112;16.280;2023-07-22T00:36:29;1.38;;;1.20;;
71759;SDS011;59919;48.112;16.280;2023-07-22T00:39:05;1.52;;;1.10;;
71759;SDS011;59919;48.112;16.280;2023-07-22T00:41:39;1.70;;;1.40;;
71759;SDS011;59919;48.112;16.280;2023-07-22T00:44:13;1.20;;;1.10;;
71759;SDS011;59919;48.112;16.280;2023-07-22T00:49:27;1.50;;;1.30;;
71759;SDS011;59919;48.112;16.280;2023-07-22T00:52:00;1.83;;;1.00;;
71759;SDS011;59919;48.112;16.280;2023-07-22T00:54:35;1.30;;;1.20;;
71759;SDS011;59919;48.112;16.280;2023-07-22T00:57:08;1.67;;;1.30;;
71759;SDS011;59919;48.112;16.280;2023-07-22T00:59:43;1.00;;;0.95;;
71759;SDS011;59919;48.112;16.280;2023-07-22T01:02:20;2.53;;;1.38;;
71759;SDS011;59919;48.112;16.280;2023-07-22T01:04:52;1.77;;;0.90;;
71759;SDS011;59919;48.112;16.280;2023-07-22T01:07:26;1.40;;;1.15;;
71759;SDS011;59919;48.112;16.280;2023-07-22T01:09:58;1.70;;;1.20;;
71759;SDS011;59919;48.112;16.280;2023-07-22T01:12:32;1.38;;;1.10;;
71759;SDS011;59919;48.112;16.280;2023-07-22T01:15:03;2.13;;;1.40;;
71759;SDS011;59919;48.112;16.280;2023-07-22T01:17:38;1.92;;;1.60;;
71759;SDS011;59919;48.112;16.280;2023-07-22T01:20:09;1.35;;;1.25;;
71759;SDS011;59919;48.112;16.280;2023-07-22T01:22:50;1.30;;;1.17;;
71759;SDS011;59919;48.112;16.280;2023-07-22T01:25:23;1.63;;;1.20;;
71759;SDS011;59919;48.112;16.280;2023-07-22T01:27:57;1.70;;;1.30;;
71759;SDS011;59919;48.112;16.280;2023-07-22T01:30:31;1.50;;;1.30;;
71759;SDS011;59919;48.112;16.280;2023-07-22T01:33:05;1.20;;;1.00;;
71759;SDS011;59919;48.112;16.280;2023-07-22T01:35:39;1.55;;;1.02;;
71759;SDS011;59919;48.112;16.280;2023-07-22T01:38:12;2.08;;;1.20;;
71759;SDS011;59919;48.112;16.280;2023-07-22T01:40:46;2.15;;;1.27;;
71759;SDS011;59919;48.112;16.280;2023-07-22T01:43:17;1.02;;;0.90;;
71759;SDS011;59919;48.112;16.280;2023-07-22T01:45:53;1.70;;;1.10;;
71759;SDS011;59919;48.112;16.280;2023-07-22T01:48:26;1.60;;;1.20;;
71759;SDS011;59919;48.112;16.280;2023-07-22T01:50:58;1.40;;;1.17;;
71759;SDS011;59919;48.112;16.280;2023-07-22T01:53:30;1.40;;;1.17;;
71759;SDS011;59919;48.112;16.280;2023-07-22T01:56:03;1.20;;;1.10;;
71759;SDS011;59919;48.112;16.280;2023-07-22T01:58:37;1.38;;;1.20;;
71759;SDS011;59919;48.112;16.280;2023-07-22T02:01:10;1.77;;;1.10;;
71759;SDS011;59919;48.112;16.280;2023-07-22T02:03:44;1.27;;;1.10;;
71759;SDS011;59919;48.112;16.280;2023-07-22T02:06:17;1.88;;;1.27;;
71759;SDS011;59919;48.112;16.280;2023-07-22T02:08:50;1.60;;;1.10;;
71759;SDS011;59919;48.112;16.280;2023-07-22T02:11:24;1.00;;;0.90;;
71759;SDS011;59919;48.112;16.280;2023-07-22T02:13:55;1.80;;;1.35;;
71759;SDS011;59919;48.112;16.280;2023-07-22T02:16:26;1.20;;;1.00;;
71759;SDS011;59919;48.112;16.280;2023-07-22T02:18:59;1.48;;;1.15;;
71759;SDS011;59919;48.112;16.280;2023-07-22T02:21:32;1.48;;;1.15;;
71759;SDS011;59919;48.112;16.280;2023-07-22T02:24:04;1.20;;;1.10;;
71759;SDS011;59919;48.112;16.280;2023-07-22T02:26:35;1.20;;;1.10;;
71759;SDS011;59919;48.112;16.280;2023-07-22T02:29:09;1.30;;;1.00;;
71759;SDS011;59919;48.112;16.280;2023-07-22T02:31:46;1.13;;;1.02;;
71759;SDS011;59919;48.112;16.280;2023-07-22T02:34:17;1.23;;;0.90;;
71759;SDS011;59919;48.112;16.280;2023-07-22T02:36:48;1.67;;;1.38;;
71759;SDS011;59919;48.112;16.280;2023-07-22T02:39:21;1.33;;;1.00;;
71759;SDS011;59919;48.112;16.280;2023-07-22T02:41:55;0.93;;;0.90;;
71759;SDS011;59919;48.112;16.280;2023-07-22T02:44:27;1.35;;;1.02;;
71759;SDS011;59919;48.112;16.280;2023-07-22T02:46:58;1.35;;;1.10;;
71759;SDS011;59919;48.112;16.280;2023-07-22T02:49:29;1.38;;;1.15;;
71759;SDS011;59919;48.112;16.280;2023-07-22T02:52:03;1.17;;;1.08;;
71759;SDS011;59919;48.112;16.280;2023-07-22T02:54:38;1.10;;;1.00;;
71759;SDS011;59919;48.112;16.280;2023-07-22T02:57:11;1.23;;;1.13;;
71759;SDS011;59919;48.112;16.280;2023-07-22T02:59:42;1.30;;;1.20;;
71759;SDS011;59919;48.112;16.280;2023-07-22T03:02:13;1.42;;;1.20;;
71759;SDS011;59919;48.112;16.280;2023-07-22T03:04:45;1.25;;;1.15;;
71759;SDS011;59919;48.112;16.280;2023-07-22T03:07:18;1.27;;;1.08;;
71759;SDS011;59919;48.112;16.280;2023-07-22T03:09:51;1.90;;;1.30;;
71759;SDS011;59919;48.112;16.280;2023-07-22T03:12:24;1.20;;;1.10;;
71759;SDS011;59919;48.112;16.280;2023-07-22T03:15:00;1.70;;;1.40;;
71759;SDS011;59919;48.112;16.280;2023-07-22T03:17:32;1.30;;;1.10;;
71759;SDS011;59919;48.112;16.280;2023-07-22T03:20:07;1.73;;;1.20;;
71759;SDS011;59919;48.112;16.280;2023-07-22T03:22:45;1.40;;;1.30;;
71759;SDS011;59919;48.112;16.280;2023-07-22T03:25:17;1.10;;;1.00;;
71759;SDS011;59919;48.112;16.280;2023-07-22T03:27:48;1.63;;;1.35;;
71759;SDS011;59919;48.112;16.280;2023-07-22T03:30:22;1.50;;;1.17;;
71759;SDS011;59919;48.112;16.280;2023-07-22T03:32:53;1.40;;;1.30;;
71759;SDS011;59919;48.112;16.280;2023-07-22T03:35:24;1.60;;;1.42;;
71759;SDS011;59919;48.112;16.280;2023-07-22T03:37:58;1.30;;;1.20;;
71759;SDS011;59919;48.112;16.280;2023-07-22T03:40:32;1.55;;;1.35;;
71759;SDS011;59919;48.112;16.280;2023-07-22T03:43:04;1.45;;;1.35;;
71759;SDS011;59919;48.112;16.280;2023-07-22T03:45:35;1.30;;;1.20;;
71759;SDS011;59919;48.112;16.280;2023-07-22T03:48:07;1.50;;;1.30;;
71759;SDS011;59919;48.112;16.280;2023-07-22T03:50:39;2.10;;;1.23;;
71759;SDS011;59919;48.112;16.280;2023-07-22T03:53:12;1.40;;;1.27;;
71759;SDS011;59919;48.112;16.280;2023-07-22T03:55:44;2.42;;;1.00;;
71759;SDS011;59919;48.112;16.280;2023-07-22T03:58:15;1.40;;;1.00;;
71759;SDS011;59919;48.112;16.280;2023-07-22T04:00:49;1.30;;;1.20;;
71759;SDS011;59919;48.112;16.280;2023-07-22T04:03:28;2.05;;;1.30;;
71759;SDS011;59919;48.112;16.280;2023-07-22T04:05:59;0.82;;;0.82;;
71759;SDS011;59919;48.112;16.280;2023-07-22T04:08:30;1.08;;;0.98;;
71759;SDS011;59919;48.112;16.280;2023-07-22T04:11:01;0.80;;;0.80;;
71759;SDS011;59919;48.112;16.280;2023-07-22T04:13:33;2.20;;;1.15;;
71759;SDS011;59919;48.112;16.280;2023-07-22T04:16:04;1.13;;;1.00;;
71759;SDS011;59919;48.112;16.280;2023-07-22T04:18:38;1.90;;;1.30;;
71759;SDS011;59919;48.112;16.280;2023-07-22T04:21:12;1.15;;;1.00;;
71759;SDS011;59919;48.112;16.280;2023-07-22T04:23:43;1.48;;;1.20;;
71759;SDS011;59919;48.112;16.280;2023-07-22T04:26:14;1.35;;;1.10;;
71759;SDS011;59919;48.112;16.280;2023-07-22T04:28:48;1.27;;;1.17;;
71759;SDS011;59919;48.112;16.280;2023-07-22T04:31:27;1.20;;;1.10;;
71759;SDS011;59919;48.112;16.280;2023-07-22T04:34:03;1.65;;;1.20;;
71759;SDS011;59919;48.112;16.280;2023-07-22T04:36:39;1.90;;;1.30;;
71759;SDS011;59919;48.112;16.280;2023-07-22T04:39:16;1.67;;;1.20;;
71759;SDS011;59919;48.112;16.280;2023-07-22T04:41:48;1.58;;;1.38;;
71759;SDS011;59919;48.112;16.280;2023-07-22T04:44:19;1.27;;;1.17;;
71759;SDS011;59919;48.112;16.280;2023-07-22T04:46:50;1.42;;;1.10;;
71759;SDS011;59919;48.112;16.280;2023-07-22T04:49:22;1.55;;;1.33;;
71759;SDS011;59919;48.112;16.280;2023-07-22T04:51:58;1.35;;;1.13;;
71759;SDS011;59919;48.112;16.280;2023-07-22T04:54:29;1.15;;;1.05;;
71759;SDS011;59919;48.112;16.280;2023-07-22T04:57:03;1.50;;;1.10;;
71759;SDS011;59919;48.112;16.280;2023-07-22T04:59:37;1.25;;;0.95;;
71759;SDS011;59919;48.112;16.280;2023-07-22T05:02:08;1.17;;;1.00;;
71759;SDS011;59919;48.112;16.280;2023-07-22T05:04:42;2.38;;;1.10;;
71759;SDS011;59919;48.112;16.280;2023-07-22T05:07:16;1.50;;;1.30;;
71759;SDS011;59919;48.112;16.280;2023-07-22T05:09:47;1.20;;;1.02;;
71759;SDS011;59919;48.112;16.280;2023-07-22T05:12:24;1.48;;;1.05;;
71759;SDS011;59919;48.112;16.280;2023-07-22T05:14:57;1.70;;;1.20;;
71759;SDS011;59919;48.112;16.280;2023-07-22T05:17:31;1.13;;;1.02;;
71759;SDS011;59919;48.112;16.280;2023-07-22T05:20:02;1.10;;;1.00;;
71759;SDS011;59919;48.112;16.280;2023-07-22T05:22:39;1.27;;;1.00;;
71759;SDS011;59919;48.112;16.280;2023-07-22T05:25:11;1.20;;;1.08;;
71759;SDS011;59919;48.112;16.280;2023-07-22T05:27:42;1.85;;;1.20;;
71759;SDS011;59919;48.112;16.280;2023-07-22T05:30:16;1.13;;;1.02;;
71759;SDS011;59919;48.112;16.280;2023-07-22T05:32:53;1.63;;;1.20;;
71759;SDS011;59919;48.112;16.280;2023-07-22T05:35:26;1.10;;;1.00;;
71759;SDS011;59919;48.112;16.280;2023-07-22T05:37:57;1.10;;;1.00;;
71759;SDS011;59919;48.112;16.280;2023-07-22T05:40:31;1.55;;;1.17;;
71759;SDS011;59919;48.112;16.280;2023-07-22T05:43:05;1.02;;;0.90;;
71759;SDS011;59919;48.112;16.280;2023-07-22T05:45:39;1.10;;;1.00;;
71759;SDS011;59919;48.112;16.280;2023-07-22T05:48:15;1.27;;;1.08;;
71759;SDS011;59919;48.112;16.280;2023-07-22T05:50:49;1.70;;;1.00;;
71759;SDS011;59919;48.112;16.280;2023-07-22T05:53:20;1.85;;;1.40;;
71759;SDS011;59919;48.112;16.280;2023-07-22T05:55:51;1.55;;;1.40;;
71759;SDS011;59919;48.112;16.280;2023-07-22T05:58:26;1.25;;;1.08;;
71759;SDS011;59919;48.112;16.280;2023-07-22T06:00:57;1.52;;;1.08;;
71759;SDS011;59919;48.112;16.280;2023-07-22T06:03:31;1.42;;;1.13;;
71759;SDS011;59919;48.112;16.280;2023-07-22T06:06:06;1.13;;;0.90;;
71759;SDS011;59919;48.112;16.280;2023-07-22T06:08:40;1.88;;;1.17;;
71759;SDS011;59919;48.112;16.280;2023-07-22T06:11:17;0.98;;;0.88;;
71759;SDS011;59919;48.112;16.280;2023-07-22T06:13:51;1.38;;;0.95;;
71759;SDS011;59919;48.112;16.280;2023-07-22T06:16:22;1.23;;;1.13;;
71759;SDS011;59919;48.112;16.280;2023-07-22T06:18:56;1.20;;;1.10;;
71759;SDS011;59919;48.112;16.280;2023-07-22T06:21:29;1.98;;;1.15;;
71759;SDS011;59919;48.112;16.280;2023-07-22T06:24:04;1.27;;;1.17;;
71759;SDS011;59919;48.112;16.280;2023-07-22T06:26:44;1.30;;;1.10;;
71759;SDS011;59919;48.112;16.280;2023-07-22T06:29:15;1.25;;;1.02;;
71759;SDS011;59919;48.112;16.280;2023-07-22T06:31:48;1.10;;;0.90;;
71759;SDS011;59919;48.112;16.280;2023-07-22T06:34:19;1.65;;;1.35;;
71759;SDS011;59919;48.112;16.280;2023-07-22T06:36:55;1.67;;;1.30;;
71759;SDS011;59919;48.112;16.280;2023-07-22T06:39:26;1.40;;;1.30;;
71759;SDS011;59919;48.112;16.280;2023-07-22T06:42:00;1.05;;;0.95;;
71759;SDS011;59919;48.112;16.280;2023-07-22T06:44:31;2.45;;;1.20;;
71759;SDS011;59919;48.112;16.280;2023-07-22T06:47:03;1.60;;;1.10;;
71759;SDS011;59919;48.112;16.280;2023-07-22T06:49:34;1.10;;;1.00;;
71759;SDS011;59919;48.112;16.280;2023-07-22T06:52:05;1.40;;;1.10;;
71759;SDS011;59919;48.112;16.280;2023-07-22T06:54:42;2.45;;;1.30;;
71759;SDS011;59919;48.112;16.280;2023-07-22T06:57:14;1.00;;;0.90;;
71759;SDS011;59919;48.112;16.280;2023-07-22T06:59:47;1.23;;;1.10;;
71759;SDS011;59919;48.112;16.280;2023-07-22T07:02:21;1.17;;;1.02;;
71759;SDS011;59919;48.112;16.280;2023-07-22T07:04:53;1.15;;;0.93;;
71759;SDS011;59919;48.112;16.280;2023-07-22T07:07:24;1.30;;;1.10;;
71759;SDS011;59919;48.112;16.280;2023-07-22T07:09:55;1.42;;;1.00;;
71759;SDS011;59919;48.112;16.280;2023-07-22T07:12:31;1.85;;;1.17;;
71759;SDS011;59919;48.112;16.280;2023-07-22T07:15:04;1.30;;;0.98;;
71759;SDS011;59919;48.112;16.280;2023-07-22T07:17:41;1.30;;;1.20;;
71759;SDS011;59919;48.112;16.280;2023-07-22T07:20:15;1.30;;;1.10;;
71759;SDS011;59919;48.112;16.280;2023-07-22T07:22:47;1.50;;;1.02;;
71759;SDS011;59919;48.112;16.280;2023-07-22T07:25:20;1.27;;;0.90;;
71759;SDS011;59919;48.112;16.280;2023-07-22T07:27:54;1.08;;;0.98;;
71759;SDS011;59919;48.112;16.280;2023-07-22T07:30:28;1.25;;;1.15;;
71759;SDS011;59919;48.112;16.280;2023-07-22T07:33:02;1.70;;;1.33;;
71759;SDS011;59919;48.112;16.280;2023-07-22T07:35:37;1.67;;;1.17;;
71759;SDS011;59919;48.112;16.280;2023-07-22T07:38:08;1.27;;;1.02;;
71759;SDS011;59919;48.112;16.280;2023-07-22T07:40:39;1.65;;;1.20;;
71759;SDS011;59919;48.112;16.280;2023-07-22T07:43:10;2.00;;;1.00;;
71759;SDS011;59919;48.112;16.280;2023-07-22T07:45:41;1.13;;;1.02;;
71759;SDS011;59919;48.112;16.280;2023-07-22T07:48:13;1.20;;;1.10;;
71759;SDS011;59919;48.112;16.280;2023-07-22T07:50:45;1.65;;;1.10;;
71759;SDS011;59919;48.112;16.280;2023-07-22T07:53:19;1.20;;;1.10;;
71759;SDS011;59919;48.112;16.280;2023-07-22T07:55:53;1.10;;;1.00;;
71759;SDS011;59919;48.112;16.280;2023-07-22T07:58:26;1.27;;;1.10;;
71759;SDS011;59919;48.112;16.280;2023-07-22T08:00:58;1.10;;;1.00;;
71759;SDS011;59919;48.112;16.280;2023-07-22T08:03:29;1.20;;;0.98;;
71759;SDS011;59919;48.112;16.280;2023-07-22T08:06:03;1.20;;;1.00;;
71759;SDS011;59919;48.112;16.280;2023-07-22T08:08:35;0.88;;;0.80;;
71759;SDS011;59919;48.112;16.280;2023-07-22T08:11:10;1.10;;;1.00;;
71759;SDS011;59919;48.112;16.280;2023-07-22T08:13:48;1.65;;;1.20;;
71759;SDS011;59919;48.112;16.280;2023-07-22T08:16:19;1.80;;;1.05;;
71759;SDS011;59919;48.112;16.280;2023-07-22T08:18:50;1.38;;;1.20;;
71759;SDS011;59919;48.112;16.280;2023-07-22T08:21:21;1.00;;;0.90;;
71759;SDS011;59919;48.112;16.280;2023-07-22T08:23:52;1.20;;;1.10;;
71759;SDS011;59919;48.112;16.280;2023-07-22T08:26:23;1.10;;;1.00;;
71759;SDS011;59919;48.112;16.280;2023-07-22T08:28:57;1.60;;;1.10;;
71759;SDS011;59919;48.112;16.280;2023-07-22T08:31:28;1.35;;;0.90;;
71759;SDS011;59919;48.112;16.280;2023-07-22T08:33:59;1.15;;;1.02;;
71759;SDS011;59919;48.112;16.280;2023-07-22T08:36:33;1.00;;;0.90;;
71759;SDS011;59919;48.112;16.280;2023-07-22T08:39:05;1.00;;;0.90;;
71759;SDS011;59919;48.112;16.280;2023-07-22T08:41:36;1.45;;;1.00;;
71759;SDS011;59919;48.112;16.280;2023-07-22T08:44:14;1.30;;;1.10;;
71759;SDS011;59919;48.112;16.280;2023-07-22T08:46:53;1.17;;;1.00;;
71759;SDS011;59919;48.112;16.280;2023-07-22T08:49:28;0.88;;;0.77;;
71759;SDS011;59919;48.112;16.280;2023-07-22T08:52:03;1.48;;;0.95;;
71759;SDS011;59919;48.112;16.280;2023-07-22T08:54:38;1.10;;;1.00;;
71759;SDS011;59919;48.112;16.280;2023-07-22T08:57:10;0.90;;;0.80;;
71759;SDS011;59919;48.112;16.280;2023-07-22T08:59:42;1.25;;;1.15;;
71759;SDS011;59919;48.112;16.280;2023-07-22T09:02:14;1.05;;;0.93;;
71759;SDS011;59919;48.112;16.280;2023-07-22T09:04:45;0.90;;;0.80;;
71759;SDS011;59919;48.112;16.280;2023-07-22T09:07:17;1.55;;;0.93;;
71759;SDS011;59919;48.112;16.280;2023-07-22T09:09:49;0.93;;;0.85;;
71759;SDS011;59919;48.112;16.280;2023-07-22T09:12:22;1.20;;;0.93;;
71759;SDS011;59919;48.112;16.280;2023-07-22T09:14:54;1.13;;;0.90;;
71759;SDS011;59919;48.112;16.280;2023-07-22T09:17:31;0.98;;;0.93;;
71759;SDS011;59919;48.112;16.280;2023-07-22T09:20:03;1.27;;;1.02;;
71759;SDS011;59919;48.112;16.280;2023-07-22T09:22:35;1.02;;;0.90;;
71759;SDS011;59919;48.112;16.280;2023-07-22T09:27:52;1.00;;;0.90;;
71759;SDS011;59919;48.112;16.280;2023-07-22T09:30:32;1.20;;;1.00;;
71759;SDS011;59919;48.112;16.280;2023-07-22T09:38:22;1.00;;;0.90;;
71759;SDS011;59919;48.112;16.280;2023-07-22T09:40:55;1.00;;;0.90;;
71759;SDS011;59919;48.112;16.280;2023-07-22T09:43:26;1.10;;;0.93;;
71759;SDS011;59919;48.112;16.280;2023-07-22T09:46:10;0.95;;;0.88;;
71759;SDS011;59919;48.112;16.280;2023-07-22T09:48:42;1.17;;;1.00;;
71759;SDS011;59919;48.112;16.280;2023-07-22T09:51:15;1.05;;;0.95;;
71759;SDS011;59919;48.112;16.280;2023-07-22T09:53:47;1.58;;;0.90;;
71759;SDS011;59919;48.112;16.280;2023-07-22T09:56:30;1.23;;;1.05;;
71759;SDS011;59919;48.112;16.280;2023-07-22T09:59:04;1.00;;;0.90;;
71759;SDS011;59919;48.112;16.280;2023-07-22T10:01:39;0.70;;;0.70;;
71759;SDS011;59919;48.112;16.280;2023-07-22T10:04:11;1.00;;;0.90;;
71759;SDS011;59919;48.112;16.280;2023-07-22T10:06:46;1.02;;;0.80;;
71759;SDS011;59919;48.112;16.280;2023-07-22T10:09:19;0.98;;;0.82;;
71759;SDS011;59919;48.112;16.280;2023-07-22T10:11:53;1.40;;;0.82;;
71759;SDS011;59919;48.112;16.280;2023-07-22T10:14:28;1.27;;;0.90;;
71759;SDS011;59919;48.112;16.280;2023-07-22T10:17:01;1.63;;;0.70;;
71759;SDS011;59919;48.112;16.280;2023-07-22T10:19:34;0.98;;;0.90;;
71759;SDS011;59919;48.112;16.280;2023-07-22T10:22:08;1.35;;;0.95;;
71759;SDS011;59919;48.112;16.280;2023-07-22T10:24:40;0.85;;;0.80;;
71759;SDS011;59919;48.112;16.280;2023-07-22T10:27:15;0.88;;;0.80;;
71759;SDS011;59919;48.112;16.280;2023-07-22T10:29:48;0.90;;;0.90;;
71759;SDS011;59919;48.112;16.280;2023-07-22T10:32:19;0.98;;;0.80;;
71759;SDS011;59919;48.112;16.280;2023-07-22T10:34:50;0.93;;;0.80;;
71759;SDS011;59919;48.112;16.280;2023-07-22T10:37:28;1.02;;;0.80;;
71759;SDS011;59919;48.112;16.280;2023-07-22T10:40:18;0.85;;;0.80;;
71759;SDS011;59919;48.112;16.280;2023-07-22T10:45:42;1.00;;;0.90;;
71759;SDS011;59919;48.112;16.280;2023-07-22T10:48:19;1.23;;;0.90;;
71759;SDS011;59919;48.112;16.280;2023-07-22T10:50:55;0.80;;;0.80;;
71759;SDS011;59919;48.112;16.280;2023-07-22T10:56:14;1.13;;;0.90;;
71759;SDS011;59919;48.112;16.280;2023-07-22T11:14:46;0.98;;;0.80;;
71759;SDS011;59919;48.112;16.280;2023-07-22T11:17:28;1.08;;;0.80;;
71759;SDS011;59919;48.112;16.280;2023-07-22T11:20:01;1.02;;;0.70;;
71759;SDS011;59919;48.112;16.280;2023-07-22T11:22:32;0.75;;;0.73;;
71759;SDS011;59919;48.112;16.280;2023-07-22T11:25:04;0.93;;;0.80;;
71759;SDS011;59919;48.112;16.280;2023-07-22T11:27:36;0.88;;;0.80;;
71759;SDS011;59919;48.112;16.280;2023-07-22T11:30:10;1.25;;;0.80;;
71759;SDS011;59919;48.112;16.280;2023-07-22T11:32:42;0.80;;;0.80;;
71759;SDS011;59919;48.112;16.280;2023-07-22T11:35:15;1.20;;;0.90;;
71759;SDS011;59919;48.112;16.280;2023-07-22T11:37:47;0.80;;;0.73;;
71759;SDS011;59919;48.112;16.280;2023-07-22T11:40:18;0.70;;;0.70;;
71759;SDS011;59919;48.112;16.280;2023-07-22T11:42:54;0.90;;;0.68;;
71759;SDS011;59919;48.112;16.280;2023-07-22T11:45:26;0.65;;;0.60;;
71759;SDS011;59919;48.112;16.280;2023-07-22T11:48:00;0.80;;;0.77;;
71759;SDS011;59919;48.112;16.280;2023-07-22T11:50:34;1.02;;;0.80;;
71759;SDS011;59919;48.112;16.280;2023-07-22T11:53:11;0.80;;;0.70;;
71759;SDS011;59919;48.112;16.280;2023-07-22T11:55:42;0.80;;;0.60;;
71759;SDS011;59919;48.112;16.280;2023-07-22T11:58:23;1.10;;;0.90;;
71759;SDS011;59919;48.112;16.280;2023-07-22T12:01:06;1.23;;;0.80;;
71759;SDS011;59919;48.112;16.280;2023-07-22T12:03:40;1.02;;;0.80;;
71759;SDS011;59919;48.112;16.280;2023-07-22T12:06:12;1.25;;;0.68;;
71759;SDS011;59919;48.112;16.280;2023-07-22T12:08:45;0.73;;;0.63;;
71759;SDS011;59919;48.112;16.280;2023-07-22T12:11:23;0.68;;;0.65;;
71759;SDS011;59919;48.112;16.280;2023-07-22T12:16:48;1.60;;;0.80;;
71759;SDS011;59919;48.112;16.280;2023-07-22T12:19:28;0.75;;;0.70;;
71759;SDS011;59919;48.112;16.280;2023-07-22T12:22:01;0.82;;;0.65;;
71759;SDS011;59919;48.112;16.280;2023-07-22T12:24:32;0.68;;;0.68;;
71759;SDS011;59919;48.112;16.280;2023-07-22T12:27:04;1.02;;;0.82;;
71759;SDS011;59919;48.112;16.280;2023-07-22T12:29:40;1.42;;;0.75;;
71759;SDS011;59919;48.112;16.280;2023-07-22T12:32:11;0.90;;;0.70;;
71759;SDS011;59919;48.112;16.280;2023-07-22T12:34:42;1.25;;;0.93;;
71759;SDS011;59919;48.112;16.280;2023-07-22T12:37:13;0.57;;;0.57;;
71759;SDS011;59919;48.112;16.280;2023-07-22T12:39:47;0.70;;;0.68;;
71759;SDS011;59919;48.112;16.280;2023-07-22T12:42:20;1.08;;;0.80;;
71759;SDS011;59919;48.112;16.280;2023-07-22T12:44:52;0.77;;;0.73;;
71759;SDS011;59919;48.112;16.280;2023-07-22T12:47:23;0.60;;;0.60;;
71759;SDS011;59919;48.112;16.280;2023-07-22T12:49:57;0.50;;;0.50;;
71759;SDS011;59919;48.112;16.280;2023-07-22T12:52:28;1.00;;;0.80;;
71759;SDS011;59919;48.112;16.280;2023-07-22T12:55:02;0.70;;;0.70;;
71759;SDS011;59919;48.112;16.280;2023-07-22T12:57:34;0.85;;;0.70;;
71759;SDS011;59919;48.112;16.280;2023-07-22T13:00:05;0.93;;;0.80;;
71759;SDS011;59919;48.112;16.280;2023-07-22T13:02:42;0.88;;;0.73;;
71759;SDS011;59919;48.112;16.280;2023-07-22T13:05:13;1.52;;;0.60;;
71759;SDS011;59919;48.112;16.280;2023-07-22T13:07:45;0.50;;;0.50;;
71759;SDS011;59919;48.112;16.280;2023-07-22T13:10:16;1.00;;;0.60;;
71759;SDS011;59919;48.112;16.280;2023-07-22T13:12:50;0.75;;;0.65;;
71759;SDS011;59919;48.112;16.280;2023-07-22T13:15:21;0.90;;;0.63;;
71759;SDS011;59919;48.112;16.280;2023-07-22T13:17:52;0.90;;;0.70;;
71759;SDS011;59919;48.112;16.280;2023-07-22T13:20:33;0.60;;;0.60;;
71759;SDS011;59919;48.112;16.280;2023-07-22T13:23:04;0.80;;;0.70;;
71759;SDS011;59919;48.112;16.280;2023-07-22T13:25:35;0.60;;;0.60;;
71759;SDS011;59919;48.112;16.280;2023-07-22T13:28:06;0.73;;;0.60;;
71759;SDS011;59919;48.112;16.280;2023-07-22T13:30:42;0.98;;;0.80;;
71759;SDS011;59919;48.112;16.280;2023-07-22T13:33:13;0.60;;;0.60;;
71759;SDS011;59919;48.112;16.280;2023-07-22T13:35:44;0.70;;;0.63;;
71759;SDS011;59919;48.112;16.280;2023-07-22T13:38:18;0.95;;;0.70;;
71759;SDS011;59919;48.112;16.280;2023-07-22T13:40:51;0.50;;;0.50;;
71759;SDS011;59919;48.112;16.280;2023-07-22T13:43:22;0.60;;;0.60;;
71759;SDS011;59919;48.112;16.280;2023-07-22T13:45:53;0.85;;;0.85;;
71759;SDS011;59919;48.112;16.280;2023-07-22T13:48:24;1.67;;;0.70;;
71759;SDS011;59919;48.112;16.280;2023-07-22T13:50:55;0.63;;;0.63;;
71759;SDS011;59919;48.112;16.280;2023-07-22T13:53:27;0.60;;;0.60;;
71759;SDS011;59919;48.112;16.280;2023-07-22T13:55:58;0.75;;;0.65;;
71759;SDS011;59919;48.112;16.280;2023-07-22T13:58:31;0.60;;;0.55;;
71759;SDS011;59919;48.112;16.280;2023-07-22T14:01:02;1.00;;;0.60;;
71759;SDS011;59919;48.112;16.280;2023-07-22T14:03:33;0.70;;;0.70;;
71759;SDS011;59919;48.112;16.280;2023-07-22T14:06:05;0.73;;;0.65;;
71759;SDS011;59919;48.112;16.280;2023-07-22T14:08:41;1.67;;;0.98;;
71759;SDS011;59919;48.112;16.280;2023-07-22T14:11:12;0.90;;;0.75;;
71759;SDS011;59919;48.112;16.280;2023-07-22T14:13:43;1.10;;;0.80;;
71759;SDS011;59919;48.112;16.280;2023-07-22T14:16:15;1.02;;;0.70;;
71759;SDS011;59919;48.112;16.280;2023-07-22T14:18:46;0.80;;;0.60;;
71759;SDS011;59919;48.112;16.280;2023-07-22T14:21:17;0.80;;;0.68;;
71759;SDS011;59919;48.112;16.280;2023-07-22T14:23:53;0.73;;;0.68;;
71759;SDS011;59919;48.112;16.280;2023-07-22T14:26:26;0.70;;;0.50;;
71759;SDS011;59919;48.112;16.280;2023-07-22T14:28:57;1.08;;;0.68;;
71759;SDS011;59919;48.112;16.280;2023-07-22T14:31:28;0.60;;;0.60;;
71759;SDS011;59919;48.112;16.280;2023-07-22T14:33:59;1.00;;;0.75;;
71759;SDS011;59919;48.112;16.280;2023-07-22T14:36:31;0.90;;;0.80;;
71759;SDS011;59919;48.112;16.280;2023-07-22T14:39:02;0.70;;;0.60;;
71759;SDS011;59919;48.112;16.280;2023-07-22T14:41:33;0.85;;;0.70;;
71759;SDS011;59919;48.112;16.280;2023-07-22T14:44:04;0.70;;;0.50;;
71759;SDS011;59919;48.112;16.280;2023-07-22T14:46:36;0.70;;;0.70;;
71759;SDS011;59919;48.112;16.280;2023-07-22T14:49:07;0.93;;;0.57;;
71759;SDS011;59919;48.112;16.280;2023-07-22T14:51:41;0.80;;;0.63;;
71759;SDS011;59919;48.112;16.280;2023-07-22T14:54:12;0.63;;;0.50;;
71759;SDS011;59919;48.112;16.280;2023-07-22T14:56:46;0.88;;;0.70;;
71759;SDS011;59919;48.112;16.280;2023-07-22T14:59:20;1.00;;;0.60;;
71759;SDS011;59919;48.112;16.280;2023-07-22T15:01:51;0.60;;;0.57;;
71759;SDS011;59919;48.112;16.280;2023-07-22T15:04:23;0.80;;;0.60;;
71759;SDS011;59919;48.112;16.280;2023-07-22T15:06:59;1.10;;;0.90;;
71759;SDS011;59919;48.112;16.280;2023-07-22T15:09:30;1.02;;;0.65;;
71759;SDS011;59919;48.112;16.280;2023-07-22T15:12:07;0.50;;;0.43;;
71759;SDS011;59919;48.112;16.280;2023-07-22T15:14:38;0.70;;;0.60;;
71759;SDS011;59919;48.112;16.280;2023-07-22T15:17:10;0.55;;;0.50;;
71759;SDS011;59919;48.112;16.280;2023-07-22T15:19:44;0.77;;;0.60;;
71759;SDS011;59919;48.112;16.280;2023-07-22T15:22:18;0.60;;;0.57;;
71759;SDS011;59919;48.112;16.280;2023-07-22T15:24:52;0.65;;;0.57;;
71759;SDS011;59919;48.112;16.280;2023-07-22T15:27:23;0.60;;;0.52;;
71759;SDS011;59919;48.112;16.280;2023-07-22T15:29:56;0.95;;;0.65;;
71759;SDS011;59919;48.112;16.280;2023-07-22T15:32:31;0.70;;;0.60;;
71759;SDS011;59919;48.112;16.280;2023-07-22T15:35:02;0.70;;;0.70;;
71759;SDS011;59919;48.112;16.280;2023-07-22T15:37:33;0.90;;;0.80;;
71759;SDS011;59919;48.112;16.280;2023-07-22T15:40:05;0.95;;;0.77;;
71759;SDS011;59919;48.112;16.280;2023-07-22T15:42:39;0.75;;;0.60;;